Time;durP1;ratioP1;P1;durP2;ratioP2;P2;SDS_P1;SDS_P2;PMS_P1;PMS_P2;Temp;Humidity;BMP_temperature;BMP_pressure;BME280_temperature;BME280_humidity;BME280_pressure;Samples;Min_cycle;Max_cycle;Signal;HPM_P1;HPM_P2
2023/09/23 00:14:24;;;;;;;10.47;2.00;;;12.70;99.90;;;;;;1944267;72;27037;-87
2023/09/23 00:17:13;;;;;;;6.23;1.70;;;12.70;99.90;;;;;;1921767;73;25287;-87
2023/09/23 00:20:05;;;;;;;6.37;1.77;;;12.70;99.90;;;;;;1933008;73;25310;-87
2023/09/23 00:25:47;;;;;;;6.87;2.00;;;12.60;99.90;;;;;;1980007;71;26967;-87
2023/09/23 00:28:33;;;;;;;6.27;1.60;;;12.70;99.90;;;;;;1897613;75;25315;-87
2023/09/23 00:31:24;;;;;;;4.00;1.60;;;12.70;99.90;;;;;;1906652;74;25197;-86
2023/09/23 00:36:51;;;;;;;4.53;1.57;;;12.70;99.90;;;;;;1950082;71;26876;-87
2023/09/23 00:39:40;;;;;;;3.73;1.60;;;12.70;99.90;;;;;;1976627;72;25747;-87
2023/09/23 00:42:28;;;;;;;7.03;1.83;;;12.70;99.90;;;;;;1905533;73;25700;-86
2023/09/23 00:45:18;;;;;;;8.33;1.80;;;12.70;99.90;;;;;;1925288;73;25168;-87
2023/09/23 00:48:08;;;;;;;8.37;1.70;;;12.70;99.90;;;;;;1874468;76;25632;-87
2023/09/23 00:50:56;;;;;;;5.10;1.57;;;12.60;99.90;;;;;;1953496;73;25263;-87
2023/09/23 00:53:46;;;;;;;4.00;1.77;;;12.50;99.90;;;;;;1936034;73;25639;-87
2023/09/23 00:56:36;;;;;;;4.50;1.73;;;12.60;99.90;;;;;;1945469;73;25268;-87
2023/09/23 01:02:18;;;;;;;4.90;1.90;;;12.50;99.90;;;;;;1945925;72;26981;-87
2023/09/23 01:05:08;;;;;;;6.10;1.90;;;12.60;99.90;;;;;;1919133;73;25213;-87
2023/09/23 01:07:57;;;;;;;2.70;1.60;;;12.60;99.90;;;;;;1926386;73;25336;-86
2023/09/23 01:10:48;;;;;;;4.77;1.60;;;12.70;99.90;;;;;;1941307;73;25205;-87
2023/09/23 01:16:16;;;;;;;8.10;1.80;;;12.80;99.90;;;;;;1934013;72;27530;-87
2023/09/23 01:19:09;;;;;;;6.80;2.13;;;12.80;99.90;;;;;;1865957;75;25256;-87
2023/09/23 01:24:38;;;;;;;6.57;1.70;;;12.80;99.90;;;;;;1888498;74;27110;-87
2023/09/23 01:27:27;;;;;;;4.80;1.57;;;12.90;99.90;;;;;;1833912;76;25263;-87
2023/09/23 01:30:15;;;;;;;2.60;1.83;;;12.90;99.90;;;;;;1829552;77;25794;-87
2023/09/23 01:33:05;;;;;;;3.20;1.77;;;12.90;99.90;;;;;;1842788;76;25183;-87
2023/09/23 01:35:57;;;;;;;4.13;1.90;;;12.90;99.90;;;;;;1843516;77;25169;-87
2023/09/23 01:38:46;;;;;;;10.07;2.03;;;12.90;99.90;;;;;;1844858;77;25223;-87
2023/09/23 01:41:36;;;;;;;6.87;1.63;;;13.00;99.90;;;;;;1830545;77;25348;-87
2023/09/23 01:44:24;;;;;;;4.67;1.80;;;13.00;99.90;;;;;;1801967;78;25289;-87
2023/09/23 01:47:16;;;;;;;3.47;1.67;;;13.00;99.90;;;;;;1800205;77;25330;-87
2023/09/23 01:50:03;;;;;;;6.27;2.00;;;13.00;99.90;;;;;;1812368;77;25317;-87
2023/09/23 01:52:52;;;;;;;7.70;1.60;;;13.00;99.90;;;;;;1828033;77;25261;-87
2023/09/23 01:55:40;;;;;;;3.77;1.60;;;13.00;99.90;;;;;;1775269;80;25349;-87
2023/09/23 01:58:29;;;;;;;7.47;1.70;;;13.10;99.90;;;;;;1789392;79;25227;-87
2023/09/23 02:05:01;;;;;;;7.23;1.97;;;13.10;99.90;;;;;;1958387;71;26370;-87
2023/09/23 02:07:50;;;;;;;7.43;1.33;;;13.10;99.90;;;;;;1999028;70;25210;-87
2023/09/23 02:10:42;;;;;;;6.73;1.67;;;13.10;99.90;;;;;;1989882;70;25295;-87
2023/09/23 02:13:36;;;;;;;2.57;1.60;;;13.10;99.90;;;;;;1996745;70;25182;-87
2023/09/23 02:16:21;;;;;;;2.87;1.70;;;13.10;99.90;;;;;;2005154;70;25213;-87
2023/09/23 02:21:51;;;;;;;6.30;1.83;;;13.10;99.90;;;;;;1897741;74;27175;-87
2023/09/23 02:24:40;;;;;;;4.23;1.80;;;13.10;99.90;;;;;;1849484;77;25299;-87
2023/09/23 02:27:29;;;;;;;4.03;1.87;;;13.20;99.90;;;;;;1834153;78;25262;-87
2023/09/23 02:30:18;;;;;;;3.97;1.70;;;13.20;99.90;;;;;;1860814;77;25760;-87
2023/09/23 02:33:08;;;;;;;4.53;1.70;;;13.20;99.90;;;;;;1860051;77;25272;-88
2023/09/23 02:35:57;;;;;;;3.93;1.80;;;13.20;99.90;;;;;;1862448;77;25703;-88
2023/09/23 02:38:46;;;;;;;2.17;1.77;;;13.20;99.90;;;;;;1862793;77;25240;-88
2023/09/23 02:41:35;;;;;;;3.73;1.60;;;13.20;99.90;;;;;;1845306;76;25297;-88
2023/09/23 02:44:24;;;;;;;3.37;1.90;;;13.30;99.90;;;;;;1861730;77;25227;-88
2023/09/23 02:47:12;;;;;;;7.70;1.80;;;13.30;99.90;;;;;;1856215;77;25197;-88
2023/09/23 02:50:01;;;;;;;5.33;1.43;;;13.30;99.90;;;;;;1852556;77;25326;-88
2023/09/23 02:52:50;;;;;;;2.90;1.60;;;13.30;99.90;;;;;;1859417;77;26354;-88
2023/09/23 02:58:18;;;;;;;6.33;1.70;;;13.30;99.90;;;;;;1935641;72;27008;-87
2023/09/23 03:01:14;;;;;;;4.30;1.87;;;13.40;99.90;;;;;;1914457;74;25641;-87
2023/09/23 03:04:06;;;;;;;5.90;1.87;;;13.40;99.90;;;;;;1898887;73;25251;-86
2023/09/23 03:06:49;;;;;;;5.60;1.63;;;13.40;99.90;;;;;;1877283;76;25308;-87
2023/09/23 03:09:43;;;;;;;4.37;1.77;;;13.50;99.90;;;;;;1816902;76;25352;-87
2023/09/23 03:12:29;;;;;;;4.57;1.70;;;13.50;99.90;;;;;;1897620;75;25686;-87
2023/09/23 03:15:22;;;;;;;6.20;1.90;;;13.50;99.90;;;;;;1851260;76;25788;-87
2023/09/23 03:18:10;;;;;;;5.93;1.80;;;13.50;99.90;;;;;;1805950;78;25233;-87
2023/09/23 03:23:40;;;;;;;4.87;1.70;;;13.60;99.90;;;;;;1943443;72;27090;-87
2023/09/23 03:26:29;;;;;;;2.57;1.60;;;13.60;99.90;;;;;;1939256;73;25339;-87
2023/09/23 03:29:18;;;;;;;6.37;1.70;;;13.60;99.90;;;;;;1934702;73;25755;-87
2023/09/23 03:32:07;;;;;;;4.70;1.67;;;13.70;99.90;;;;;;1938219;73;25320;-87
2023/09/23 03:34:56;;;;;;;6.50;1.73;;;13.70;99.90;;;;;;1929516;73;25321;-87
2023/09/23 03:37:51;;;;;;;5.07;1.60;;;13.70;99.90;;;;;;1929325;73;25242;-87
2023/09/23 03:40:40;;;;;;;2.57;1.40;;;13.70;99.90;;;;;;1938492;73;25677;-87
2023/09/23 03:43:29;;;;;;;2.77;1.50;;;13.70;99.90;;;;;;1896346;73;26373;-87
2023/09/23 03:48:59;;;;;;;4.83;1.73;;;13.80;99.90;;;;;;1956321;72;27008;-86
2023/09/23 03:51:48;;;;;;;3.87;1.90;;;13.80;99.90;;;;;;1924108;72;25213;-87
2023/09/23 03:54:37;;;;;;;6.17;1.83;;;13.80;99.90;;;;;;1925657;73;25298;-87
2023/09/23 03:57:26;;;;;;;3.47;1.90;;;13.90;99.90;;;;;;1934667;72;25691;-87
2023/09/23 04:03:08;;;;;;;5.83;1.90;;;13.90;99.90;;;;;;1951404;72;27492;-87
2023/09/23 04:05:57;;;;;;;7.67;1.80;;;13.80;99.90;;;;;;1922140;73;25293;-87
2023/09/23 04:08:47;;;;;;;5.73;1.80;;;13.90;99.90;;;;;;1924693;73;25232;-87
2023/09/23 04:11:36;;;;;;;6.53;2.03;;;13.90;99.90;;;;;;1919736;73;25300;-87
2023/09/23 04:14:26;;;;;;;4.10;2.07;;;13.90;99.90;;;;;;1917527;73;25298;-87
2023/09/23 04:17:16;;;;;;;5.53;2.17;;;14.00;99.90;;;;;;1927254;73;25266;-87
2023/09/23 04:22:46;;;;;;;5.13;2.40;;;14.00;99.90;;;;;;1936966;72;27126;-87
2023/09/23 04:28:14;;;;;;;5.33;2.30;;;13.90;99.90;;;;;;1949170;72;26993;-87
2023/09/23 04:33:43;;;;;;;11.50;2.40;;;13.90;99.90;;;;;;1924790;72;26948;-87
2023/09/23 04:36:32;;;;;;;4.47;2.30;;;13.90;99.90;;;;;;1912905;74;25245;-87
2023/09/23 04:39:22;;;;;;;5.33;2.47;;;13.90;99.90;;;;;;1913576;73;25296;-86
2023/09/23 04:42:11;;;;;;;5.00;2.07;;;13.90;99.90;;;;;;1899406;74;25296;-87
2023/09/23 04:44:59;;;;;;;6.90;2.40;;;13.80;99.90;;;;;;1866089;76;25261;-87
2023/09/23 04:50:29;;;;;;;7.23;2.83;;;13.90;99.90;;;;;;1925113;72;27504;-87
2023/09/23 04:55:57;;;;;;;6.60;2.77;;;13.90;99.90;;;;;;1936559;72;27031;-87
2023/09/23 04:58:46;;;;;;;9.27;2.70;;;13.90;99.90;;;;;;1901802;75;25844;-87
2023/09/23 05:04:16;;;;;;;5.77;2.80;;;14.00;99.90;;;;;;1919316;72;27076;-86
2023/09/23 05:07:06;;;;;;;4.47;2.60;;;14.00;99.90;;;;;;1909763;75;25242;-86
2023/09/23 05:09:55;;;;;;;7.43;2.60;;;14.00;99.90;;;;;;1896268;74;25191;-86
2023/09/23 05:12:45;;;;;;;11.83;2.70;;;14.00;99.90;;;;;;1894598;74;25746;-86
2023/09/23 05:15:34;;;;;;;6.83;2.67;;;14.00;99.90;;;;;;1915488;74;25761;-87
2023/09/23 05:18:24;;;;;;;3.17;2.20;;;14.00;99.90;;;;;;1909671;74;25255;-86
2023/09/23 05:21:13;;;;;;;4.70;2.20;;;14.10;99.90;;;;;;1899968;75;25632;-88
2023/09/23 05:24:01;;;;;;;10.20;2.53;;;14.00;99.90;;;;;;1900554;75;25288;-88
2023/09/23 05:26:50;;;;;;;5.80;2.50;;;14.10;99.90;;;;;;1905629;75;25715;-88
2023/09/23 05:29:40;;;;;;;9.13;2.30;;;14.10;99.90;;;;;;1900014;74;25296;-87
2023/09/23 05:32:29;;;;;;;11.47;2.43;;;14.10;99.90;;;;;;1895073;75;25719;-87
2023/09/23 05:38:09;;;;;;;7.87;2.23;;;14.10;99.90;;;;;;1947347;72;27571;-87
2023/09/23 05:40:57;;;;;;;6.23;2.40;;;14.10;99.90;;;;;;1917686;73;25270;-87
2023/09/23 05:43:46;;;;;;;5.70;2.40;;;14.20;99.90;;;;;;1892582;73;26343;-87
2023/09/23 05:49:56;;;;;;;5.50;2.00;;;14.20;99.90;;;;;;1950566;71;26464;-87
2023/09/23 05:52:45;;;;;;;4.20;1.90;;;14.20;99.90;;;;;;1976920;71;25804;-87
2023/09/23 05:55:34;;;;;;;6.30;2.00;;;14.30;99.90;;;;;;1952554;73;25274;-87
2023/09/23 05:58:24;;;;;;;9.30;2.30;;;14.20;99.90;;;;;;1944791;73;25690;-87
2023/09/23 06:01:12;;;;;;;4.93;1.90;;;14.20;99.90;;;;;;1926197;73;25281;-87
2023/09/23 06:06:43;;;;;;;4.60;1.77;;;14.30;99.90;;;;;;1932309;72;27551;-87
2023/09/23 06:09:32;;;;;;;7.87;2.50;;;14.30;99.90;;;;;;1909113;73;25181;-87
2023/09/23 06:12:21;;;;;;;7.07;1.90;;;14.30;99.90;;;;;;1853394;75;25263;-87
2023/09/23 06:15:11;;;;;;;6.17;2.07;;;14.30;99.90;;;;;;1841166;76;25322;-87
2023/09/23 06:17:59;;;;;;;4.37;1.77;;;14.30;99.90;;;;;;1855482;75;25362;-88
2023/09/23 06:20:47;;;;;;;12.67;1.80;;;14.30;99.90;;;;;;1849960;76;25245;-88
2023/09/23 06:23:36;;;;;;;7.53;1.80;;;14.40;99.90;;;;;;1863273;75;25251;-88
2023/09/23 06:29:06;;;;;;;4.80;1.70;;;14.40;99.90;;;;;;1932195;72;27045;-87
2023/09/23 06:44:58;;;;;;;6.70;1.87;;;14.50;99.90;;;;;;1829758;75;27115;-86
2023/09/23 06:50:29;;;;;;;4.63;1.50;;;14.80;99.90;;;;;;1932461;72;27580;-87
2023/09/23 06:53:18;;;;;;;3.67;1.70;;;15.00;99.90;;;;;;1885080;75;25230;-87
2023/09/23 06:58:53;;;;;;;4.47;1.40;;;15.20;99.90;;;;;;1949013;72;26939;-87
2023/09/23 07:01:42;;;;;;;4.53;1.30;;;15.20;99.90;;;;;;1939190;72;25172;-87
2023/09/23 07:04:31;;;;;;;2.03;1.37;;;15.20;99.90;;;;;;1944900;73;25290;-88
2023/09/23 07:07:20;;;;;;;1.73;1.30;;;15.30;99.90;;;;;;1918210;73;25229;-87
2023/09/23 07:10:10;;;;;;;2.53;1.50;;;15.20;99.90;;;;;;1920923;73;25741;-87
2023/09/23 07:12:58;;;;;;;2.00;1.43;;;15.40;99.90;;;;;;1939101;72;25889;-87
2023/09/23 07:15:47;;;;;;;4.87;1.50;;;15.40;99.90;;;;;;1934869;72;25197;-87
2023/09/23 07:18:35;;;;;;;4.80;1.83;;;15.60;99.90;;;;;;1932709;73;25220;-87
2023/09/23 07:21:23;;;;;;;5.50;1.43;;;15.50;99.90;;;;;;1927872;73;25154;-88
2023/09/23 07:24:12;;;;;;;3.73;1.30;;;15.70;99.90;;;;;;1925501;72;25238;-88
2023/09/23 07:29:43;;;;;;;4.50;1.30;;;15.90;99.90;;;;;;1921803;72;27008;-87
2023/09/23 07:32:32;;;;;;;6.80;1.50;;;15.90;99.90;;;;;;1904991;73;25891;-87
2023/09/23 07:38:07;;;;;;;3.13;1.30;;;15.90;99.90;;;;;;1941769;72;26922;-87
2023/09/23 07:40:55;;;;;;;2.87;1.43;;;15.80;99.90;;;;;;1938035;72;25726;-87
2023/09/23 07:43:44;;;;;;;2.47;1.23;;;16.00;99.90;;;;;;1894151;73;25260;-87
2023/09/23 07:46:33;;;;;;;2.00;1.20;;;16.00;99.90;;;;;;1896093;73;25623;-87
2023/09/23 07:49:21;;;;;;;2.40;1.20;;;15.90;99.90;;;;;;1893422;73;25252;-87
2023/09/23 07:52:10;;;;;;;6.40;1.63;;;16.00;99.90;;;;;;1889481;75;25778;-87
2023/09/23 07:54:59;;;;;;;3.30;1.60;;;16.20;99.90;;;;;;1904662;74;25222;-87
2023/09/23 07:57:48;;;;;;;2.13;1.23;;;16.40;99.90;;;;;;1899557;75;25196;-87
2023/09/23 08:00:37;;;;;;;4.33;1.40;;;16.40;99.90;;;;;;1898144;73;25316;-87
2023/09/23 08:06:18;;;;;;;7.60;1.50;;;16.60;99.90;;;;;;1940374;72;27043;-87
2023/09/23 08:09:08;;;;;;;5.10;1.60;;;16.20;99.90;;;;;;1928188;73;25675;-87
2023/09/23 08:11:57;;;;;;;3.43;1.20;;;16.20;99.90;;;;;;1920889;73;25708;-87
2023/09/23 08:14:46;;;;;;;2.73;1.40;;;16.30;99.90;;;;;;1934375;73;25305;-87
2023/09/23 08:17:34;;;;;;;4.30;1.50;;;16.20;99.90;;;;;;1935030;73;25233;-87
2023/09/23 08:23:03;;;;;;;3.60;1.60;;;16.10;99.90;;;;;;1951865;72;27431;-87
2023/09/23 08:25:52;;;;;;;5.23;1.40;;;16.00;99.90;;;;;;1933134;73;25257;-87
2023/09/23 08:28:42;;;;;;;4.63;1.40;;;16.10;99.90;;;;;;1928360;73;25219;-87
2023/09/23 08:31:30;;;;;;;3.13;1.43;;;16.20;99.90;;;;;;1926680;73;25251;-87
2023/09/23 08:34:20;;;;;;;9.90;1.50;;;16.20;99.90;;;;;;1932645;72;25224;-87
2023/09/23 08:37:08;;;;;;;4.70;1.20;;;16.30;99.90;;;;;;1936562;72;25281;-88
2023/09/23 08:39:56;;;;;;;1.80;1.37;;;16.70;99.90;;;;;;1939611;72;25218;-88
2023/09/23 08:42:47;;;;;;;4.20;1.40;;;16.80;99.90;;;;;;1928706;73;25372;-88
2023/09/23 08:48:23;;;;;;;2.43;1.40;;;16.20;99.90;;;;;;1947855;72;27088;-87
2023/09/23 08:51:14;;;;;;;3.90;1.33;;;15.90;99.90;;;;;;1900728;75;25697;-87
2023/09/23 08:54:04;;;;;;;3.77;1.37;;;15.90;99.90;;;;;;1902846;75;25240;-87
2023/09/23 08:56:54;;;;;;;2.57;1.20;;;16.00;99.90;;;;;;1892452;75;25188;-88
2023/09/23 08:59:43;;;;;;;2.10;1.20;;;16.50;99.90;;;;;;1898080;75;25952;-88
2023/09/23 09:02:31;;;;;;;2.30;1.37;;;17.00;99.90;;;;;;1903125;75;25305;-88
2023/09/23 09:05:19;;;;;;;2.67;1.40;;;17.00;99.90;;;;;;1896291;75;25210;-87
2023/09/23 09:08:09;;;;;;;2.00;1.40;;;17.00;99.90;;;;;;1906058;75;25383;-87
2023/09/23 09:11:00;;;;;;;3.30;1.00;;;17.10;99.90;;;;;;1903915;75;25341;-87
2023/09/23 09:13:49;;;;;;;1.83;1.23;;;17.10;99.90;;;;;;1905329;75;25777;-87
2023/09/23 09:16:41;;;;;;;3.50;1.20;;;17.30;99.90;;;;;;1896467;75;25263;-87
2023/09/23 09:19:30;;;;;;;3.97;1.37;;;17.40;99.90;;;;;;1899833;75;25366;-87
2023/09/23 09:25:02;;;;;;;2.73;1.10;;;17.30;99.90;;;;;;1930582;72;27015;-87
2023/09/23 09:27:51;;;;;;;2.17;1.03;;;17.30;99.90;;;;;;1862631;76;25283;-87
2023/09/23 09:30:41;;;;;;;3.23;1.30;;;17.50;99.90;;;;;;1813013;78;25338;-87
2023/09/23 09:33:31;;;;;;;5.30;1.20;;;17.50;99.90;;;;;;1911247;74;25244;-87
2023/09/23 09:36:21;;;;;;;2.40;1.17;;;17.20;99.90;;;;;;1871710;76;25182;-87
2023/09/23 09:42:01;;;;;;;2.90;1.00;;;16.70;99.90;;;;;;1947152;72;27057;-87
2023/09/23 09:44:54;;;;;;;3.10;1.47;;;16.20;99.90;;;;;;1888189;75;25268;-87
2023/09/23 09:47:43;;;;;;;2.27;1.20;;;16.00;99.90;;;;;;1888755;75;25248;-87
2023/09/23 10:06:57;;;;;;;5.80;1.40;;;17.40;99.90;;;;;;1920189;72;28443;-86
2023/09/23 10:09:55;;;;;;;2.97;1.20;;;17.60;99.90;;;;;;1860377;75;25698;-88
2023/09/23 10:12:51;;;;;;;1.83;1.30;;;17.60;99.90;;;;;;1853563;77;25782;-88
2023/09/23 10:15:41;;;;;;;1.93;1.37;;;17.60;99.90;;;;;;1859985;77;25734;-89
2023/09/23 10:21:28;;;;;;;3.17;1.33;;;17.30;99.90;;;;;;1945432;72;27287;-87
2023/09/23 10:24:27;;;;;;;3.47;1.30;;;17.30;99.90;;;;;;1919032;73;25677;-87
2023/09/23 10:27:15;;;;;;;3.37;1.50;;;17.50;99.90;;;;;;1926835;73;25348;-87
2023/09/23 10:33:26;;;;;;;1.17;1.10;;;17.60;99.90;;;;;;1990648;71;27105;-87
2023/09/23 10:36:20;;;;;;;4.03;1.23;;;17.80;99.90;;;;;;1961485;72;25214;-87
2023/09/23 10:43:38;;;;;;;4.17;1.47;;;17.40;99.90;;;;;;1938643;72;26316;-87
2023/09/23 10:46:26;;;;;;;1.73;1.20;;;16.80;99.90;;;;;;1984464;71;25242;-87
2023/09/23 10:49:15;;;;;;;3.07;1.40;;;17.00;99.90;;;;;;1971196;71;25607;-87
2023/09/23 10:52:05;;;;;;;3.93;3.00;;;17.00;99.90;;;;;;1933624;72;25670;-87
2023/09/23 10:54:54;;;;;;;2.20;1.40;;;17.00;99.90;;;;;;1948700;72;25267;-87
2023/09/23 11:00:25;;;;;;;2.57;1.50;;;16.90;99.90;;;;;;1935685;72;26906;-87
2023/09/23 11:03:17;;;;;;;4.40;1.70;;;16.90;99.90;;;;;;1912696;73;25683;-87
2023/09/23 11:06:08;;;;;;;3.20;1.60;;;16.80;99.90;;;;;;1911997;73;25336;-87
2023/09/23 11:23:12;;;;;;;3.33;1.57;;;16.80;99.90;;;;;;1910568;74;26269;-88
2023/09/23 11:28:47;;;;;;;3.97;2.07;;;16.40;99.90;;;;;;1944820;72;27063;-88
2023/09/23 11:31:36;;;;;;;4.97;1.80;;;16.30;99.90;;;;;;1917337;73;25774;-88
2023/09/23 11:34:24;;;;;;;5.40;1.70;;;16.20;99.90;;;;;;1925252;73;25316;-87
2023/09/23 11:37:13;;;;;;;4.47;1.57;;;16.10;99.90;;;;;;1938412;73;25167;-87
2023/09/23 11:43:17;;;;;;;3.13;1.67;;;16.10;99.90;;;;;;1959444;71;27340;-87
2023/09/23 11:46:06;;;;;;;1.70;1.60;;;16.00;99.90;;;;;;1940254;73;25294;-87
2023/09/23 11:48:55;;;;;;;6.00;1.90;;;15.80;99.90;;;;;;2020803;70;25194;-87
2023/09/23 11:51:44;;;;;;;6.33;1.90;;;15.80;99.90;;;;;;2022121;70;25183;-87
2023/09/23 11:54:35;;;;;;;5.27;1.90;;;15.80;99.90;;;;;;2019710;70;25157;-87
2023/09/23 12:00:13;;;;;;;5.27;2.20;;;15.40;99.90;;;;;;1930198;72;27071;-87
2023/09/23 12:05:48;;;;;;;5.60;2.50;;;15.50;99.90;;;;;;1919607;72;28513;-88
2023/09/23 12:08:37;;;;;;;4.63;2.70;;;15.60;99.90;;;;;;1897544;74;25330;-88
2023/09/23 12:11:27;;;;;;;4.10;2.30;;;15.70;99.90;;;;;;1902240;73;25291;-88
2023/09/23 12:14:18;;;;;;;4.93;1.97;;;15.90;99.90;;;;;;1889785;74;25231;-88
2023/09/23 12:17:06;;;;;;;5.10;2.33;;;16.10;99.90;;;;;;1904345;74;25746;-88
2023/09/23 12:19:55;;;;;;;5.73;1.87;;;16.30;99.90;;;;;;1905348;75;25301;-88
2023/09/23 12:22:45;;;;;;;3.80;1.53;;;16.50;99.90;;;;;;1907991;75;25295;-88
2023/09/23 12:25:33;;;;;;;3.10;1.30;;;16.60;99.90;;;;;;1871573;76;25243;-88
2023/09/23 12:28:22;;;;;;;3.10;1.40;;;16.60;99.90;;;;;;1831391;77;25827;-88
2023/09/23 12:31:10;;;;;;;2.87;1.47;;;16.70;99.90;;;;;;1904694;74;25333;-88
2023/09/23 12:33:59;;;;;;;1.70;1.17;;;16.60;99.90;;;;;;1899288;74;25621;-89
2023/09/23 12:36:47;;;;;;;2.03;1.17;;;16.30;99.90;;;;;;1902117;75;25283;-88
2023/09/23 12:39:36;;;;;;;1.37;1.20;;;15.90;99.90;;;;;;1902619;75;25732;-89
2023/09/23 12:45:06;;;;;;;1.60;1.23;;;15.90;99.90;;;;;;1930881;72;27269;-88
2023/09/23 12:47:55;;;;;;;2.47;1.40;;;15.90;99.90;;;;;;1873601;76;25241;-88
2023/09/23 12:50:44;;;;;;;2.37;1.30;;;16.00;99.90;;;;;;1876858;76;25163;-88
2023/09/23 12:53:33;;;;;;;3.30;1.20;;;16.10;99.90;;;;;;1870480;74;25227;-87
2023/09/23 12:56:24;;;;;;;2.20;1.20;;;16.00;99.90;;;;;;1884016;74;25781;-87
2023/09/23 12:59:13;;;;;;;2.10;1.40;;;15.90;99.90;;;;;;1850780;77;25192;-88
2023/09/23 13:02:01;;;;;;;2.67;1.10;;;15.90;99.90;;;;;;1835863;76;25238;-88
2023/09/23 13:04:50;;;;;;;1.47;1.30;;;15.80;99.90;;;;;;1834854;76;25739;-88
2023/09/23 13:07:38;;;;;;;1.30;1.20;;;15.60;99.90;;;;;;1843629;77;25280;-88
2023/09/23 13:10:27;;;;;;;0.90;0.90;;;15.50;99.90;;;;;;1843074;77;25224;-88
2023/09/23 13:13:16;;;;;;;2.03;1.20;;;15.50;99.90;;;;;;1845699;76;25760;-88
2023/09/23 13:16:07;;;;;;;1.93;1.40;;;15.50;99.90;;;;;;1844356;76;25271;-89
2023/09/23 13:18:56;;;;;;;1.90;1.27;;;15.70;99.90;;;;;;1845202;77;25295;-88
2023/09/23 13:21:45;;;;;;;2.60;1.27;;;15.70;99.90;;;;;;1841051;77;25276;-88
2023/09/23 13:24:34;;;;;;;5.10;1.50;;;15.80;99.90;;;;;;1838644;76;25264;-88
2023/09/23 13:27:22;;;;;;;5.50;1.40;;;15.80;99.90;;;;;;1841980;76;25791;-88
2023/09/23 13:30:12;;;;;;;2.33;1.33;;;15.80;99.90;;;;;;1845779;77;25267;-88
2023/09/23 13:33:01;;;;;;;1.53;1.07;;;15.90;99.90;;;;;;1845492;76;25318;-88
2023/09/23 13:35:51;;;;;;;2.13;1.30;;;16.00;99.90;;;;;;1847136;76;25332;-88
2023/09/23 13:38:40;;;;;;;9.07;1.47;;;16.00;99.90;;;;;;1844191;76;25307;-88
2023/09/23 13:41:29;;;;;;;2.47;1.10;;;15.90;99.90;;;;;;1817514;77;25313;-88
2023/09/23 13:44:18;;;;;;;4.93;1.30;;;15.70;99.90;;;;;;1858646;75;25257;-88
2023/09/23 13:47:06;;;;;;;5.40;1.50;;;15.70;99.90;;;;;;1914615;73;25289;-88
2023/09/23 13:52:33;;;;;;;3.70;1.40;;;15.50;99.90;;;;;;1934863;72;27357;-87
2023/09/23 13:55:22;;;;;;;2.33;1.50;;;15.40;99.90;;;;;;1912446;73;25738;-88
2023/09/23 13:58:11;;;;;;;2.73;1.30;;;15.30;99.90;;;;;;1912294;73;25731;-88
2023/09/23 14:00:59;;;;;;;4.50;1.30;;;15.30;99.90;;;;;;1912765;73;25277;-88
2023/09/23 14:03:49;;;;;;;8.93;1.43;;;15.30;99.90;;;;;;1908949;73;25193;-88
2023/09/23 14:22:38;;;;;;;4.80;1.50;;;15.20;99.90;;;;;;1942347;72;26857;-88
2023/09/23 14:25:27;;;;;;;5.13;1.60;;;15.10;99.90;;;;;;1918674;72;25800;-88
2023/09/23 14:28:15;;;;;;;4.93;1.40;;;15.10;99.90;;;;;;1926593;73;25233;-88
2023/09/23 14:31:03;;;;;;;3.53;1.43;;;15.10;99.90;;;;;;1931937;72;25174;-88
2023/09/23 14:33:51;;;;;;;6.33;1.50;;;15.10;99.90;;;;;;1932997;72;25772;-88
2023/09/23 14:36:40;;;;;;;3.27;1.20;;;15.20;99.90;;;;;;1925279;72;25208;-87
2023/09/23 14:42:09;;;;;;;2.97;1.30;;;15.20;99.90;;;;;;1924002;72;27100;-87
2023/09/23 14:44:57;;;;;;;6.10;1.50;;;15.20;99.90;;;;;;1867277;75;25815;-87
2023/09/23 14:47:47;;;;;;;4.13;1.40;;;15.20;99.90;;;;;;1881943;75;25319;-87
2023/09/23 14:50:37;;;;;;;3.57;1.50;;;15.10;99.90;;;;;;1885508;75;25243;-87
2023/09/23 14:53:27;;;;;;;2.50;1.40;;;15.10;99.90;;;;;;1883464;75;25270;-88
2023/09/23 14:56:15;;;;;;;4.57;1.30;;;15.20;99.90;;;;;;1873941;75;25221;-88
2023/09/23 14:59:04;;;;;;;1.43;1.20;;;15.30;99.90;;;;;;1881709;75;25247;-88
2023/09/23 15:01:52;;;;;;;2.87;1.27;;;15.20;99.90;;;;;;1876580;75;25714;-88
2023/09/23 15:04:41;;;;;;;4.20;1.43;;;15.30;99.90;;;;;;1879546;75;25772;-88
2023/09/23 15:07:31;;;;;;;3.50;1.50;;;15.20;99.90;;;;;;1890536;75;25364;-88
2023/09/23 15:10:20;;;;;;;1.97;1.20;;;15.20;99.90;;;;;;1876104;75;25340;-88
2023/09/23 15:13:09;;;;;;;5.20;1.50;;;15.30;99.90;;;;;;1880720;75;25256;-88
2023/09/23 15:16:00;;;;;;;2.70;1.40;;;15.20;99.90;;;;;;1867448;75;25280;-88
2023/09/23 15:21:34;;;;;;;3.97;1.40;;;15.20;99.90;;;;;;1941114;72;27095;-87
2023/09/23 15:24:23;;;;;;;4.50;1.60;;;15.10;99.90;;;;;;1917063;73;25217;-87
2023/09/23 15:27:12;;;;;;;2.77;1.43;;;15.20;99.90;;;;;;1927682;73;25677;-87
2023/09/23 15:30:00;;;;;;;3.03;1.43;;;15.20;99.90;;;;;;1916348;73;25321;-88
2023/09/23 15:32:49;;;;;;;5.53;1.60;;;15.10;99.90;;;;;;1886699;75;25304;-88
2023/09/23 15:35:39;;;;;;;4.20;1.80;;;15.10;99.90;;;;;;1923427;73;25812;-87
2023/09/23 15:41:07;;;;;;;4.77;1.77;;;15.10;99.90;;;;;;1953906;72;27676;-88
2023/09/23 15:46:37;;;;;;;6.83;2.60;;;15.00;99.90;;;;;;1931567;72;27080;-88
2023/09/23 15:49:26;;;;;;;5.63;2.60;;;15.00;99.90;;;;;;1911248;73;25837;-88
2023/09/23 15:55:01;;;;;;;7.60;3.63;;;15.00;99.90;;;;;;1954094;72;27070;-88
2023/09/23 15:57:50;;;;;;;12.97;3.97;;;15.00;99.90;;;;;;1916982;73;25231;-88
2023/09/23 16:00:39;;;;;;;19.37;5.57;;;15.10;99.90;;;;;;1916308;73;25868;-88
2023/09/23 16:03:28;;;;;;;11.80;5.30;;;15.10;99.90;;;;;;1925812;73;25236;-88
2023/09/23 16:06:16;;;;;;;30.27;13.67;;;15.20;99.90;;;;;;1923909;73;25235;-88
2023/09/23 16:09:08;;;;;;;8.57;4.20;;;15.20;99.90;;;;;;1934602;73;25753;-88
2023/09/23 16:14:36;;;;;;;7.77;3.80;;;15.00;99.90;;;;;;1937138;72;27604;-87
2023/09/23 16:17:24;;;;;;;6.00;1.60;;;14.90;99.90;;;;;;1892786;75;25155;-88
2023/09/23 16:20:13;;;;;;;4.67;1.50;;;14.80;99.90;;;;;;1905544;75;25740;-87
2023/09/23 16:25:48;;;;;;;2.80;1.20;;;14.70;99.90;;;;;;1942160;72;27072;-90
2023/09/23 16:28:37;;;;;;;1.77;1.33;;;14.70;99.90;;;;;;1902314;74;25251;-87
2023/09/23 16:31:25;;;;;;;1.93;1.40;;;14.70;99.90;;;;;;1896452;75;25282;-87
2023/09/23 16:37:04;;;;;;;2.87;1.33;;;14.70;99.90;;;;;;1942011;72;27167;-88
2023/09/23 16:42:35;;;;;;;2.97;1.33;;;14.40;99.90;;;;;;1899088;72;27132;-87
2023/09/23 16:45:24;;;;;;;2.27;1.40;;;14.50;99.90;;;;;;1881277;75;25721;-87
2023/09/23 16:48:12;;;;;;;4.90;1.23;;;14.40;99.90;;;;;;1862258;75;25677;-88
2023/09/23 16:51:01;;;;;;;3.83;1.60;;;14.40;99.90;;;;;;1876858;75;25719;-88
2023/09/23 16:53:50;;;;;;;2.50;1.30;;;14.40;99.90;;;;;;1861435;75;25282;-88
2023/09/23 16:56:39;;;;;;;2.33;1.30;;;14.40;99.90;;;;;;1874714;75;25224;-89
2023/09/23 16:59:27;;;;;;;1.30;1.20;;;14.40;99.90;;;;;;1849192;75;25183;-88
2023/09/23 17:02:16;;;;;;;2.20;1.30;;;14.40;99.90;;;;;;1875948;75;25273;-88
2023/09/23 17:05:04;;;;;;;4.07;1.60;;;14.30;99.90;;;;;;1883674;75;25632;-88
2023/09/23 17:07:53;;;;;;;3.60;1.70;;;14.30;99.90;;;;;;1865739;75;25195;-89
2023/09/23 17:10:42;;;;;;;4.10;1.67;;;14.20;99.90;;;;;;1860400;75;25307;-88
2023/09/23 17:16:23;;;;;;;7.20;1.30;;;14.20;99.90;;;;;;2047329;69;26937;-87
2023/09/23 17:21:59;;;;;;;3.67;1.30;;;14.10;99.90;;;;;;1935973;72;27699;-87
2023/09/23 17:27:27;;;;;;;3.63;1.50;;;14.00;99.90;;;;;;1944283;72;27522;-87
2023/09/23 17:30:16;;;;;;;3.53;1.30;;;14.00;99.90;;;;;;1907933;74;25723;-88
2023/09/23 17:33:05;;;;;;;2.53;1.30;;;14.00;99.90;;;;;;1875835;76;25217;-87
2023/09/23 17:35:58;;;;;;;2.20;1.17;;;14.00;99.90;;;;;;1823564;77;25189;-88
2023/09/23 17:41:27;;;;;;;3.40;1.20;;;14.00;99.90;;;;;;1931845;72;27464;-87
2023/09/23 17:44:16;;;;;;;6.60;1.50;;;14.00;99.90;;;;;;1918875;73;25792;-87
2023/09/23 17:47:05;;;;;;;4.30;1.30;;;14.00;99.90;;;;;;1914348;73;25260;-87
2023/09/23 17:49:53;;;;;;;1.30;1.20;;;14.00;99.90;;;;;;1909983;73;25253;-89
2023/09/23 17:55:24;;;;;;;2.00;1.07;;;14.00;99.90;;;;;;2037084;69;27018;-87
2023/09/23 17:58:13;;;;;;;1.97;1.07;;;13.90;99.90;;;;;;1970191;72;25330;-88
2023/09/23 18:01:04;;;;;;;6.13;1.30;;;14.00;99.90;;;;;;1981513;72;25775;-88
2023/09/23 18:03:53;;;;;;;4.33;1.10;;;14.00;99.90;;;;;;1973790;72;25599;-88
2023/09/23 18:06:42;;;;;;;4.30;1.10;;;13.90;99.90;;;;;;1970438;72;25707;-88
2023/09/23 18:09:31;;;;;;;5.33;1.33;;;13.80;99.90;;;;;;1974292;72;25141;-88
2023/09/23 18:12:20;;;;;;;1.13;1.03;;;13.80;99.90;;;;;;1985110;72;25672;-88
2023/09/23 18:15:12;;;;;;;4.43;1.33;;;13.90;99.90;;;;;;1977099;72;25243;-88
2023/09/23 18:18:01;;;;;;;6.57;1.63;;;13.90;99.90;;;;;;1977910;72;25225;-88
2023/09/23 18:20:49;;;;;;;3.20;1.07;;;13.90;99.90;;;;;;1973123;72;25606;-88
2023/09/23 18:23:38;;;;;;;4.33;1.20;;;14.00;99.90;;;;;;1975516;72;25148;-88